createdAt,value
2022-09-26T00:01:26.120Z,100.00
2022-09-26T00:03:56.743Z,100.00
2022-09-26T00:06:25.027Z,100.00
2022-09-26T00:08:53.150Z,100.00
2022-09-26T00:11:23.939Z,100.00
2022-09-26T00:13:58.326Z,100.00
2022-09-26T00:16:26.598Z,100.00
2022-09-26T00:18:56.054Z,100.00
2022-09-26T00:21:24.810Z,100.00
2022-09-26T00:23:52.589Z,100.00
2022-09-26T00:26:22.154Z,100.00
2022-09-26T00:28:49.781Z,100.00
2022-09-26T00:31:20.871Z,100.00
2022-09-26T00:33:48.408Z,100.00
2022-09-26T00:36:16.635Z,100.00
2022-09-26T00:38:44.320Z,100.00
2022-09-26T00:41:12.721Z,100.00
2022-09-26T00:43:43.468Z,100.00
2022-09-26T00:46:32.480Z,100.00
2022-09-26T00:49:13.277Z,100.00
2022-09-26T00:51:46.487Z,100.00
2022-09-26T00:54:17.079Z,100.00
2022-09-26T00:56:49.040Z,100.00
2022-09-26T00:59:24.939Z,100.00
2022-09-26T01:01:55.379Z,100.00
2022-09-26T01:04:26.116Z,100.00
2022-09-26T01:06:54.404Z,100.00
2022-09-26T01:09:21.802Z,100.00
2022-09-26T01:11:49.189Z,100.00
2022-09-26T01:14:20.073Z,100.00
2022-09-26T01:16:51.446Z,100.00
2022-09-26T01:19:43.211Z,100.00
2022-09-26T01:22:48.153Z,100.00
2022-09-26T01:25:36.440Z,100.00
2022-09-26T01:28:15.529Z,100.00
2022-09-26T01:31:12.291Z,100.00
2022-09-26T01:33:55.704Z,100.00
2022-09-26T01:36:45.722Z,100.00
2022-09-26T01:39:44.509Z,100.00
2022-09-26T01:42:50.018Z,100.00
2022-09-26T01:45:26.996Z,100.00
2022-09-26T01:47:57.391Z,100.00
2022-09-26T01:50:38.933Z,100.00
2022-09-26T01:53:10.595Z,100.00
2022-09-26T01:55:51.590Z,100.00
2022-09-26T01:58:33.619Z,100.00
2022-09-26T02:01:05.333Z,100.00
2022-09-26T02:03:42.154Z,100.00
2022-09-26T02:06:14.621Z,100.00
2022-09-26T02:08:50.707Z,100.00
2022-09-26T02:11:19.671Z,100.00
2022-09-26T02:14:12.084Z,100.00
2022-09-26T02:16:44.786Z,100.00
2022-09-26T02:19:20.996Z,100.00
2022-09-26T02:21:49.222Z,100.00
2022-09-26T02:24:20.829Z,100.00
2022-09-26T02:26:48.056Z,100.00
2022-09-26T02:29:16.964Z,100.00
2022-09-26T02:32:03.236Z,100.00
2022-09-26T02:34:30.704Z,100.00
2022-09-26T02:37:00.078Z,100.00
2022-09-26T02:39:31.047Z,100.00
2022-09-26T02:42:25.017Z,100.00
2022-09-26T02:45:40.802Z,100.00
2022-09-26T02:48:13.388Z,100.00
2022-09-26T02:51:20.808Z,100.00
2022-09-26T02:54:04.031Z,100.00
2022-09-26T02:56:51.936Z,100.00
2022-09-26T02:59:24.067Z,100.00
2022-09-26T03:02:01.813Z,100.00
2022-09-26T03:04:46.589Z,100.00
2022-09-26T03:07:24.518Z,100.00
2022-09-26T03:09:53.464Z,100.00
2022-09-26T03:12:26.687Z,100.00
2022-09-26T03:14:58.572Z,100.00
2022-09-26T03:17:27.161Z,100.00
2022-09-26T03:20:00.018Z,100.00
2022-09-26T03:22:28.375Z,100.00
2022-09-26T03:24:59.708Z,100.00
2022-09-26T03:27:27.943Z,100.00
2022-09-26T03:29:56.172Z,100.00
2022-09-26T03:32:25.044Z,100.00
2022-09-26T03:34:52.222Z,100.00
2022-09-26T03:37:19.487Z,100.00
2022-09-26T03:39:46.739Z,100.00
2022-09-26T03:42:21.838Z,100.00
2022-09-26T03:44:49.727Z,100.00
2022-09-26T03:47:40.035Z,100.00
2022-09-26T03:50:07.679Z,100.00
2022-09-26T03:52:35.800Z,100.00
2022-09-26T03:55:04.355Z,100.00
2022-09-26T03:57:31.647Z,100.00
2022-09-26T04:00:11.611Z,100.00
2022-09-26T04:02:46.105Z,100.00
2022-09-26T04:05:26.179Z,100.00
2022-09-26T04:07:53.887Z,100.00
2022-09-26T04:10:21.031Z,100.00
2022-09-26T04:12:49.159Z,100.00
2022-09-26T04:15:16.678Z,100.00
2022-09-26T04:17:44.108Z,100.00
2022-09-26T04:20:11.543Z,100.00
2022-09-26T04:22:39.378Z,100.00
2022-09-26T04:25:07.146Z,100.00
2022-09-26T04:27:34.742Z,100.00
2022-09-26T04:30:01.924Z,100.00
2022-09-26T04:32:37.079Z,100.00
2022-09-26T04:35:35.845Z,100.00
2022-09-26T04:38:04.866Z,100.00
2022-09-26T04:40:34.119Z,100.00
2022-09-26T04:43:08.316Z,100.00
2022-09-26T04:45:36.182Z,100.00
2022-09-26T04:48:03.731Z,100.00
2022-09-26T04:50:49.683Z,100.00
2022-09-26T04:53:18.301Z,100.00
2022-09-26T04:56:07.363Z,100.00
2022-09-26T04:58:35.591Z,100.00
2022-09-26T05:01:05.736Z,100.00
2022-09-26T05:03:56.304Z,100.00
2022-09-26T05:06:24.376Z,100.00
2022-09-26T05:08:51.778Z,100.00
2022-09-26T05:11:25.255Z,100.00
2022-09-26T05:13:53.850Z,100.00
2022-09-26T05:16:22.942Z,100.00
2022-09-26T05:18:53.124Z,100.00
2022-09-26T05:21:20.762Z,100.00
2022-09-26T05:24:06.126Z,100.00
2022-09-26T05:26:43.136Z,100.00
2022-09-26T05:29:12.418Z,100.00
2022-09-26T05:31:46.802Z,100.00
2022-09-26T05:34:19.471Z,100.00
2022-09-26T05:36:49.048Z,100.00
2022-09-26T05:39:37.829Z,100.00
2022-09-26T05:42:09.062Z,100.00
2022-09-26T05:44:36.893Z,100.00
2022-09-26T05:47:04.538Z,100.00
2022-09-26T05:49:36.284Z,100.00
2022-09-26T05:52:04.288Z,100.00
2022-09-26T05:54:32.352Z,100.00
2022-09-26T05:57:02.437Z,100.00
2022-09-26T05:59:41.123Z,100.00
2022-09-26T06:02:26.562Z,100.00
2022-09-26T06:05:10.228Z,100.00
2022-09-26T06:07:37.594Z,100.00
2022-09-26T06:10:09.174Z,100.00
2022-09-26T06:13:02.566Z,100.00
2022-09-26T06:15:32.520Z,100.00
2022-09-26T06:18:05.420Z,100.00
2022-09-26T06:20:34.000Z,100.00
2022-09-26T06:23:01.964Z,100.00
2022-09-26T06:25:29.662Z,100.00
2022-09-26T06:28:00.646Z,100.00
2022-09-26T06:30:29.667Z,100.00
2022-09-26T06:33:04.152Z,100.00
2022-09-26T06:35:40.210Z,100.00
2022-09-26T06:38:17.305Z,100.00
2022-09-26T06:40:45.038Z,100.00
2022-09-26T06:43:12.249Z,100.00
2022-09-26T06:46:17.827Z,100.00
2022-09-26T06:48:50.986Z,100.00
2022-09-26T06:51:28.214Z,100.00
2022-09-26T06:53:55.434Z,100.00
2022-09-26T06:56:26.720Z,100.00
2022-09-26T06:58:53.912Z,100.00
2022-09-26T07:01:28.980Z,100.00
2022-09-26T07:04:16.013Z,100.00
2022-09-26T07:06:46.382Z,100.00
2022-09-26T07:09:13.796Z,100.00
2022-09-26T07:12:17.177Z,100.00
2022-09-26T07:14:44.564Z,100.00
2022-09-26T07:17:21.542Z,100.00
2022-09-26T07:20:17.567Z,100.00
2022-09-26T07:23:17.193Z,100.00
2022-09-26T07:25:47.059Z,100.00
2022-09-26T07:28:15.089Z,100.00
2022-09-26T07:30:48.170Z,100.00
2022-09-26T07:33:24.388Z,100.00
2022-09-26T07:35:52.988Z,100.00
2022-09-26T07:38:22.006Z,100.00
2022-09-26T07:40:54.742Z,100.00
2022-09-26T07:43:35.669Z,100.00
2022-09-26T07:46:28.863Z,100.00
2022-09-26T07:49:15.447Z,100.00
2022-09-26T07:52:05.743Z,100.00
2022-09-26T07:55:05.400Z,100.00
2022-09-26T07:57:50.334Z,100.00
2022-09-26T08:00:46.508Z,100.00
2022-09-26T08:03:44.820Z,100.00
2022-09-26T08:06:35.193Z,100.00
2022-09-26T08:09:02.701Z,100.00
2022-09-26T08:11:48.353Z,100.00
2022-09-26T08:14:36.279Z,100.00
2022-09-26T08:17:17.510Z,100.00
2022-09-26T08:19:44.781Z,100.00
2022-09-26T08:22:12.614Z,100.00
2022-09-26T08:24:39.774Z,100.00
2022-09-26T08:27:19.137Z,100.00
2022-09-26T08:29:48.697Z,100.00
2022-09-26T08:32:17.625Z,100.00
2022-09-26T08:34:44.988Z,100.00
2022-09-26T08:37:35.456Z,100.00
2022-09-26T08:40:28.508Z,100.00
2022-09-26T08:43:37.301Z,100.00
2022-09-26T08:47:01.920Z,100.00
2022-09-26T08:50:08.285Z,100.00
2022-09-26T08:52:42.033Z,100.00
2022-09-26T08:55:24.192Z,100.00
2022-09-26T08:57:54.437Z,100.00
2022-09-26T09:00:25.021Z,100.00
2022-09-26T09:03:06.992Z,100.00
2022-09-26T09:05:39.425Z,100.00
2022-09-26T09:08:14.607Z,100.00
2022-09-26T09:11:15.515Z,100.00
2022-09-26T09:14:14.364Z,100.00
2022-09-26T09:17:53.459Z,100.00
2022-09-26T09:20:58.387Z,100.00
2022-09-26T09:23:54.004Z,100.00
2022-09-26T09:30:15.903Z,100.00
2022-09-26T09:33:03.277Z,100.00
2022-09-26T09:36:00.814Z,100.00
2022-09-26T09:38:40.333Z,100.00
2022-09-26T09:41:35.414Z,100.00
2022-09-26T09:44:36.936Z,100.00
2022-09-26T09:47:14.628Z,100.00
2022-09-26T09:49:43.535Z,100.00
2022-09-26T09:52:20.294Z,100.00
2022-09-26T09:55:03.161Z,100.00
2022-09-26T09:57:55.195Z,100.00
2022-09-26T10:00:24.760Z,100.00
2022-09-26T10:03:13.119Z,100.00
2022-09-26T10:05:53.899Z,100.00
2022-09-26T10:08:35.714Z,100.00
2022-09-26T10:11:24.425Z,100.00
2022-09-26T10:14:06.343Z,100.00
2022-09-26T10:17:10.526Z,100.00
2022-09-26T10:19:48.606Z,100.00
2022-09-26T10:22:26.424Z,100.00
2022-09-26T10:25:02.802Z,95.24
2022-09-26T10:27:46.939Z,91.67
2022-09-26T10:30:18.970Z,92.38
2022-09-26T10:32:55.499Z,83.24
2022-09-26T10:35:47.706Z,86.23
2022-09-26T10:38:25.005Z,82.68
2022-09-26T10:41:26.265Z,79.34
2022-09-26T10:43:57.818Z,76.43
2022-09-26T10:46:51.571Z,71.97
2022-09-26T10:50:07.813Z,70.81
2022-09-26T10:53:11.899Z,69.20
2022-09-26T10:55:49.629Z,68.36
2022-09-26T10:58:24.274Z,63.72
2022-09-26T11:00:55.283Z,59.41
2022-09-26T11:03:38.229Z,59.29
2022-09-26T11:06:29.605Z,58.24
2022-09-26T11:09:20.928Z,58.63
2022-09-26T11:12:25.507Z,57.63
2022-09-26T11:15:00.492Z,56.22
2022-09-26T11:17:43.565Z,56.26
2022-09-26T11:20:15.826Z,55.74
2022-09-26T11:23:07.985Z,54.77
2022-09-26T11:25:57.778Z,55.85
2022-09-26T11:28:34.550Z,56.73
2022-09-26T11:31:41.196Z,55.03
2022-09-26T11:34:36.786Z,56.45
2022-09-26T11:37:36.752Z,56.05
2022-09-26T11:40:31.220Z,56.30
2022-09-26T11:43:51.641Z,56.72
2022-09-26T11:47:01.939Z,55.64
2022-09-26T11:49:50.271Z,53.82
2022-09-26T11:52:49.706Z,54.22
2022-09-26T11:55:50.886Z,53.84
2022-09-26T11:58:40.340Z,53.63
2022-09-26T12:01:31.116Z,53.45
2022-09-26T12:04:17.065Z,53.69
2022-09-26T12:06:56.734Z,53.71
2022-09-26T12:09:37.720Z,53.56
2022-09-26T12:12:10.826Z,54.52
2022-09-26T12:14:44.273Z,55.42
2022-09-26T12:17:20.401Z,54.46
2022-09-26T12:20:14.273Z,54.01
2022-09-26T12:23:14.538Z,54.87
2022-09-26T12:26:09.195Z,55.81
2022-09-26T12:28:45.342Z,55.96
2022-09-26T12:31:26.234Z,55.91
2022-09-26T12:34:18.000Z,56.40
2022-09-26T12:37:04.178Z,56.10
2022-09-26T12:39:46.681Z,55.89
2022-09-26T12:42:37.245Z,55.99
2022-09-26T12:45:24.139Z,56.90
2022-09-26T12:48:19.510Z,57.90
2022-09-26T12:51:08.378Z,59.39
2022-09-26T12:54:15.555Z,60.72
2022-09-26T12:56:55.909Z,60.99
2022-09-26T12:59:38.397Z,60.91
2022-09-26T13:02:08.912Z,60.56
2022-09-26T13:04:57.780Z,61.13
2022-09-26T13:07:53.790Z,58.83
2022-09-26T13:10:38.330Z,58.34
2022-09-26T13:13:57.667Z,58.64
2022-09-26T13:16:37.035Z,58.01
2022-09-26T13:19:24.621Z,57.50
2022-09-26T13:22:27.904Z,56.39
2022-09-26T13:25:20.210Z,55.12
2022-09-26T13:27:58.254Z,55.50
2022-09-26T13:30:35.394Z,55.53
2022-09-26T13:33:21.819Z,53.66
2022-09-26T13:35:52.024Z,54.73
2022-09-26T13:38:32.632Z,54.80
2022-09-26T13:41:19.005Z,56.58
2022-09-26T13:44:03.832Z,58.08
2022-09-26T13:47:01.570Z,58.72
2022-09-26T13:49:31.340Z,59.15
2022-09-26T13:52:11.838Z,59.10
2022-09-26T13:55:14.722Z,59.46
2022-09-26T13:58:03.356Z,60.06
2022-09-26T14:00:30.685Z,57.41
2022-09-26T14:03:19.531Z,54.91
2022-09-26T14:05:52.622Z,54.64
2022-09-26T14:08:44.653Z,55.51
2022-09-26T14:11:32.800Z,57.42
2022-09-26T14:14:21.755Z,58.19
2022-09-26T14:16:49.744Z,56.42
2022-09-26T14:19:36.468Z,55.11
2022-09-26T14:22:05.595Z,53.47
2022-09-26T14:24:38.699Z,50.90
2022-09-26T14:27:24.351Z,51.96
2022-09-26T14:29:58.729Z,49.12
2022-09-26T14:32:40.682Z,49.22
2022-09-26T14:35:21.107Z,48.35
2022-09-26T14:37:51.053Z,48.92
2022-09-26T14:40:39.877Z,48.62
2022-09-26T14:43:18.715Z,48.64
2022-09-26T14:46:15.232Z,49.28
2022-09-26T14:48:43.642Z,49.75
2022-09-26T14:51:19.840Z,49.56
2022-09-26T14:54:19.680Z,48.19
2022-09-26T14:56:49.796Z,48.28
2022-09-26T14:59:16.889Z,48.87
2022-09-26T15:01:45.400Z,48.77
2022-09-26T15:04:20.312Z,49.12
2022-09-26T15:06:57.077Z,48.85
2022-09-26T15:09:49.961Z,48.79
2022-09-26T15:12:28.817Z,49.03
2022-09-26T15:15:26.909Z,49.48
2022-09-26T15:18:02.359Z,50.39
2022-09-26T15:20:32.714Z,50.18
2022-09-26T15:23:01.421Z,51.03
2022-09-26T15:25:33.508Z,52.04
2022-09-26T15:28:05.536Z,52.68
2022-09-26T15:30:37.599Z,52.90
2022-09-26T15:33:06.193Z,53.86
2022-09-26T15:35:34.234Z,55.13
2022-09-26T15:38:12.126Z,56.04
2022-09-26T15:40:39.340Z,57.03
2022-09-26T15:43:20.744Z,57.28
2022-09-26T15:45:48.164Z,58.39
2022-09-26T15:48:22.150Z,59.01
2022-09-26T15:51:00.181Z,59.15
2022-09-26T15:53:36.727Z,59.46
2022-09-26T15:56:17.589Z,60.32
2022-09-26T15:59:22.456Z,60.53
2022-09-26T16:01:50.099Z,61.42
2022-09-26T16:04:20.972Z,62.67
2022-09-26T16:07:19.387Z,63.90
2022-09-26T16:09:48.753Z,71.94
2022-09-26T16:12:16.461Z,80.33
2022-09-26T16:14:51.024Z,92.47
2022-09-26T16:17:36.920Z,100.00
2022-09-26T16:20:10.217Z,100.00
2022-09-26T16:22:37.560Z,100.00
2022-09-26T16:25:40.013Z,100.00
2022-09-26T16:28:09.365Z,100.00
2022-09-26T16:30:46.264Z,100.00
2022-09-26T16:33:16.455Z,100.00
2022-09-26T16:35:46.802Z,100.00
2022-09-26T16:38:31.448Z,100.00
2022-09-26T16:41:42.018Z,100.00
2022-09-26T16:44:29.022Z,100.00
2022-09-26T16:47:03.383Z,100.00
2022-09-26T16:49:46.327Z,100.00
2022-09-26T16:52:28.573Z,100.00
2022-09-26T16:54:58.385Z,100.00
2022-09-26T16:57:35.469Z,100.00
2022-09-26T17:00:36.272Z,100.00
2022-09-26T17:03:17.368Z,100.00
2022-09-26T17:05:44.807Z,100.00
2022-09-26T17:08:12.294Z,100.00
2022-09-26T17:10:44.441Z,100.00
2022-09-26T17:13:22.179Z,100.00
2022-09-26T17:15:55.380Z,100.00
2022-09-26T17:18:34.881Z,100.00
2022-09-26T17:21:03.301Z,100.00
2022-09-26T17:23:42.235Z,100.00
2022-09-26T17:26:22.113Z,100.00
2022-09-26T17:28:54.087Z,100.00
2022-09-26T17:31:22.689Z,100.00
2022-09-26T17:33:53.807Z,100.00
2022-09-26T17:36:43.697Z,100.00
2022-09-26T17:39:14.745Z,100.00
2022-09-26T17:41:42.463Z,100.00
2022-09-26T17:44:10.775Z,100.00
2022-09-26T17:46:49.878Z,100.00
2022-09-26T17:49:30.911Z,100.00
2022-09-26T17:52:01.384Z,100.00
2022-09-26T17:54:31.697Z,100.00
2022-09-26T17:56:59.508Z,100.00
2022-09-26T17:59:29.005Z,100.00
2022-09-26T18:02:04.577Z,100.00
2022-09-26T18:04:33.280Z,100.00
2022-09-26T18:07:04.883Z,100.00
2022-09-26T18:09:35.592Z,100.00
2022-09-26T18:12:04.365Z,100.00
2022-09-26T18:14:33.971Z,100.00
2022-09-26T18:17:01.841Z,100.00
2022-09-26T18:19:31.033Z,100.00
2022-09-26T18:21:59.584Z,100.00
2022-09-26T18:24:30.169Z,100.00
2022-09-26T18:27:04.584Z,100.00
2022-09-26T18:29:39.097Z,100.00
2022-09-26T18:32:14.820Z,100.00
2022-09-26T18:34:43.802Z,100.00
2022-09-26T18:37:11.688Z,100.00
2022-09-26T18:39:39.667Z,100.00
2022-09-26T18:42:11.409Z,100.00
2022-09-26T18:44:38.725Z,100.00
2022-09-26T18:47:14.484Z,100.00
2022-09-26T18:49:42.157Z,100.00
2022-09-26T18:52:15.936Z,100.00
2022-09-26T18:54:45.321Z,100.00
2022-09-26T18:57:31.500Z,100.00
2022-09-26T19:00:00.420Z,100.00
2022-09-26T19:02:33.718Z,100.00
2022-09-26T19:05:03.412Z,100.00
2022-09-26T19:07:33.700Z,100.00
2022-09-26T19:10:00.948Z,100.00
2022-09-26T19:12:28.303Z,100.00
2022-09-26T19:14:56.088Z,100.00
2022-09-26T19:17:23.618Z,100.00
2022-09-26T19:19:51.302Z,100.00
2022-09-26T19:22:19.277Z,100.00
2022-09-26T19:24:56.063Z,100.00
2022-09-26T19:27:38.390Z,100.00
2022-09-26T19:30:08.677Z,100.00
2022-09-26T19:32:47.347Z,100.00
2022-09-26T19:35:27.306Z,100.00
2022-09-26T19:37:56.836Z,100.00
2022-09-26T19:40:25.928Z,100.00
2022-09-26T19:42:54.396Z,100.00
2022-09-26T19:45:22.595Z,100.00
2022-09-26T19:47:52.900Z,100.00
2022-09-26T19:50:26.618Z,100.00
2022-09-26T19:52:59.572Z,100.00
2022-09-26T19:55:31.736Z,100.00
2022-09-26T19:58:20.296Z,100.00
2022-09-26T20:00:59.372Z,100.00
2022-09-26T20:03:32.465Z,100.00
2022-09-26T20:06:01.254Z,100.00
2022-09-26T20:08:28.970Z,100.00
2022-09-26T20:10:57.062Z,100.00
2022-09-26T20:13:24.573Z,100.00
2022-09-26T20:15:52.994Z,100.00
2022-09-26T20:18:24.393Z,100.00
2022-09-26T20:20:55.997Z,100.00
2022-09-26T20:23:26.758Z,100.00
2022-09-26T20:25:56.901Z,100.00
2022-09-26T20:28:25.841Z,100.00
2022-09-26T20:30:55.012Z,100.00
2022-09-26T20:33:26.690Z,100.00
2022-09-26T20:36:02.824Z,100.00
2022-09-26T20:38:37.529Z,100.00
2022-09-26T20:41:15.542Z,100.00
2022-09-26T20:43:48.753Z,100.00
2022-09-26T20:46:16.470Z,100.00
2022-09-26T20:48:48.138Z,100.00
2022-09-26T20:51:20.771Z,100.00
2022-09-26T20:53:48.364Z,100.00
2022-09-26T20:56:21.506Z,100.00
2022-09-26T20:58:49.156Z,100.00
2022-09-26T21:01:18.703Z,100.00
2022-09-26T21:03:53.140Z,100.00
2022-09-26T21:06:23.844Z,100.00
2022-09-26T21:08:51.473Z,100.00
2022-09-26T21:11:22.759Z,100.00
2022-09-26T21:13:50.593Z,100.00
2022-09-26T21:16:20.299Z,100.00
2022-09-26T21:18:51.781Z,100.00
2022-09-26T21:21:26.937Z,100.00
2022-09-26T21:24:24.829Z,100.00
2022-09-26T21:26:52.483Z,100.00
2022-09-26T21:29:21.166Z,100.00
2022-09-26T21:31:51.860Z,100.00
2022-09-26T21:34:28.057Z,100.00
2022-09-26T21:37:01.934Z,100.00
2022-09-26T21:39:29.376Z,100.00
2022-09-26T21:41:59.086Z,100.00
2022-09-26T21:44:59.724Z,100.00
2022-09-26T21:47:28.265Z,100.00
2022-09-26T21:49:55.615Z,100.00
2022-09-26T21:52:34.300Z,100.00
2022-09-26T21:55:02.730Z,100.00
2022-09-26T21:57:34.118Z,100.00
2022-09-26T22:00:04.352Z,100.00
2022-09-26T22:02:41.962Z,100.00
2022-09-26T22:05:11.929Z,100.00
2022-09-26T22:07:39.525Z,100.00
2022-09-26T22:10:07.887Z,100.00
2022-09-26T22:12:38.128Z,100.00
2022-09-26T22:15:07.725Z,100.00
2022-09-26T22:17:35.028Z,100.00
2022-09-26T22:20:02.864Z,100.00
2022-09-26T22:22:30.321Z,100.00
2022-09-26T22:25:02.800Z,100.00
2022-09-26T22:27:31.237Z,100.00
2022-09-26T22:29:58.396Z,100.00
2022-09-26T22:32:25.993Z,100.00
2022-09-26T22:34:53.606Z,100.00
2022-09-26T22:37:20.958Z,100.00
2022-09-26T22:39:48.239Z,100.00
2022-09-26T22:42:15.519Z,100.00
2022-09-26T22:44:43.024Z,100.00
2022-09-26T22:47:10.352Z,100.00
2022-09-26T22:49:37.639Z,100.00
2022-09-26T22:52:04.889Z,100.00
2022-09-26T22:54:32.100Z,100.00
2022-09-26T22:56:59.300Z,100.00
2022-09-26T22:59:26.571Z,100.00
2022-09-26T23:01:57.084Z,100.00
2022-09-26T23:04:24.332Z,100.00
2022-09-26T23:06:52.172Z,100.00
2022-09-26T23:09:19.421Z,100.00
2022-09-26T23:11:47.327Z,100.00
2022-09-26T23:14:14.434Z,100.00
2022-09-26T23:16:41.646Z,100.00
2022-09-26T23:19:09.025Z,100.00
2022-09-26T23:21:36.216Z,100.00
2022-09-26T23:24:04.435Z,100.00
2022-09-26T23:26:32.723Z,100.00
2022-09-26T23:29:00.388Z,100.00
2022-09-26T23:31:28.519Z,100.00
2022-09-26T23:33:56.036Z,100.00
2022-09-26T23:36:24.033Z,100.00
2022-09-26T23:38:51.763Z,100.00
2022-09-26T23:41:18.992Z,100.00
2022-09-26T23:43:49.148Z,100.00
2022-09-26T23:46:17.083Z,100.00
2022-09-26T23:48:44.482Z,100.00
2022-09-26T23:51:11.657Z,100.00
2022-09-26T23:53:38.978Z,100.00
2022-09-26T23:56:09.106Z,100.00
2022-09-26T23:58:37.420Z,100.00
